sensor_id;sensor_type;location;lat;lon;timestamp;pressure;altitude;pressure_sealevel;temperature;humidity
11440;BME280;5776;51.814;4.510;2022-09-29T00:00:24;100001.41;;;10.60;88.02
11440;BME280;5776;51.814;4.510;2022-09-29T00:02:52;100002.53;;;10.59;88.58
11440;BME280;5776;51.814;4.510;2022-09-29T00:05:18;100006.38;;;10.58;87.88
11440;BME280;5776;51.814;4.510;2022-09-29T00:07:44;100011.31;;;10.56;88.33
11440;BME280;5776;51.814;4.510;2022-09-29T00:10:10;100003.47;;;10.55;88.17
11440;BME280;5776;51.814;4.510;2022-09-29T00:12:36;100005.38;;;10.54;88.18
11440;BME280;5776;51.814;4.510;2022-09-29T00:15:03;100007.94;;;10.51;88.30
11440;BME280;5776;51.814;4.510;2022-09-29T00:17:29;100011.44;;;10.51;88.72
11440;BME280;5776;51.814;4.510;2022-09-29T00:19:55;100011.09;;;10.53;87.89
11440;BME280;5776;51.814;4.510;2022-09-29T00:22:21;100009.81;;;10.50;88.17
11440;BME280;5776;51.814;4.510;2022-09-29T00:24:47;100004.38;;;10.50;87.57
11440;BME280;5776;51.814;4.510;2022-09-29T00:27:15;100007.44;;;10.49;88.27
11440;BME280;5776;51.814;4.510;2022-09-29T00:29:41;99997.97;;;10.46;87.88
11440;BME280;5776;51.814;4.510;2022-09-29T00:32:07;99999.41;;;10.44;88.17
11440;BME280;5776;51.814;4.510;2022-09-29T00:34:32;100008.50;;;10.48;88.09
11440;BME280;5776;51.814;4.510;2022-09-29T00:36:58;100006.91;;;10.47;88.54
11440;BME280;5776;51.814;4.510;2022-09-29T00:39:24;100004.81;;;10.44;87.95
11440;BME280;5776;51.814;4.510;2022-09-29T00:41:50;100001.63;;;10.42;87.84
11440;BME280;5776;51.814;4.510;2022-09-29T00:49:42;100007.66;;;10.38;87.92
11440;BME280;5776;51.814;4.510;2022-09-29T00:52:24;100004.44;;;10.36;87.67
11440;BME280;5776;51.814;4.510;2022-09-29T00:54:52;100008.47;;;10.39;87.91
11440;BME280;5776;51.814;4.510;2022-09-29T00:57:24;100004.75;;;10.35;87.46
11440;BME280;5776;51.814;4.510;2022-09-29T01:00:04;100005.88;;;10.34;87.70
11440;BME280;5776;51.814;4.510;2022-09-29T01:02:33;100003.94;;;10.34;88.35
11440;BME280;5776;51.814;4.510;2022-09-29T01:05:01;99999.31;;;10.35;87.82
11440;BME280;5776;51.814;4.510;2022-09-29T01:07:31;99999.94;;;10.32;88.46
11440;BME280;5776;51.814;4.510;2022-09-29T01:09:59;99998.63;;;10.29;87.54
11440;BME280;5776;51.814;4.510;2022-09-29T01:12:25;99997.03;;;10.28;88.30
11440;BME280;5776;51.814;4.510;2022-09-29T01:14:52;99995.72;;;10.26;87.63
11440;BME280;5776;51.814;4.510;2022-09-29T01:17:20;99989.78;;;10.24;87.80
11440;BME280;5776;51.814;4.510;2022-09-29T01:20:06;99989.78;;;10.24;87.43
11440;BME280;5776;51.814;4.510;2022-09-29T01:28:16;99989.56;;;10.20;87.37
11440;BME280;5776;51.814;4.510;2022-09-29T01:36:31;99992.00;;;10.22;87.57
11440;BME280;5776;51.814;4.510;2022-09-29T01:42:07;100004.56;;;10.17;87.75
11440;BME280;5776;51.814;4.510;2022-09-29T01:47:45;99999.25;;;10.12;87.43
11440;BME280;5776;51.814;4.510;2022-09-29T01:50:20;99991.44;;;10.11;86.45
11440;BME280;5776;51.814;4.510;2022-09-29T01:52:51;99992.84;;;10.08;86.15
11440;BME280;5776;51.814;4.510;2022-09-29T01:55:23;99990.94;;;10.09;87.76
11440;BME280;5776;51.814;4.510;2022-09-29T01:57:56;99989.63;;;10.06;87.37
11440;BME280;5776;51.814;4.510;2022-09-29T02:00:23;99993.44;;;10.05;86.16
11440;BME280;5776;51.814;4.510;2022-09-29T02:03:00;99999.69;;;10.06;86.78
11440;BME280;5776;51.814;4.510;2022-09-29T02:08:15;99996.56;;;9.99;86.65
11440;BME280;5776;51.814;4.510;2022-09-29T02:10:52;99998.47;;;9.98;86.19
11440;BME280;5776;51.814;4.510;2022-09-29T02:13:20;99996.06;;;9.97;86.45
11440;BME280;5776;51.814;4.510;2022-09-29T02:15:50;99994.16;;;9.97;86.28
11440;BME280;5776;51.814;4.510;2022-09-29T02:18:22;99992.84;;;9.94;85.96
11440;BME280;5776;51.814;4.510;2022-09-29T02:20:48;99992.06;;;9.94;85.75
11440;BME280;5776;51.814;4.510;2022-09-29T02:23:16;99991.25;;;9.93;86.62
11440;BME280;5776;51.814;4.510;2022-09-29T02:25:43;99995.38;;;9.91;86.02
11440;BME280;5776;51.814;4.510;2022-09-29T02:28:12;99993.47;;;9.91;86.06
11440;BME280;5776;51.814;4.510;2022-09-29T02:30:38;99986.13;;;9.92;86.55
11440;BME280;5776;51.814;4.510;2022-09-29T02:33:04;99999.88;;;9.95;86.87
11440;BME280;5776;51.814;4.510;2022-09-29T02:36:04;99998.88;;;9.91;86.28
11440;BME280;5776;51.814;4.510;2022-09-29T02:38:47;100003.00;;;9.89;86.82
11440;BME280;5776;51.814;4.510;2022-09-29T03:00:12;99998.78;;;9.83;86.46
11440;BME280;5776;51.814;4.510;2022-09-29T03:02:41;99995.28;;;9.82;85.96
11440;BME280;5776;51.814;4.510;2022-09-29T03:05:09;99999.91;;;9.82;85.52
11440;BME280;5776;51.814;4.510;2022-09-29T03:07:37;100001.81;;;9.81;85.76
11440;BME280;5776;51.814;4.510;2022-09-29T03:10:04;99993.97;;;9.80;86.38
11440;BME280;5776;51.814;4.510;2022-09-29T03:12:31;100003.22;;;9.79;86.86
11440;BME280;5776;51.814;4.510;2022-09-29T03:14:57;100000.81;;;9.77;86.14
11440;BME280;5776;51.814;4.510;2022-09-29T03:17:23;100002.72;;;9.77;86.07
11440;BME280;5776;51.814;4.510;2022-09-29T03:19:49;100001.13;;;9.76;86.67
11440;BME280;5776;51.814;4.510;2022-09-29T03:22:14;100006.56;;;9.76;86.76
11440;BME280;5776;51.814;4.510;2022-09-29T03:24:40;99997.09;;;9.73;86.03
11440;BME280;5776;51.814;4.510;2022-09-29T03:27:07;99994.88;;;9.75;86.44
11440;BME280;5776;51.814;4.510;2022-09-29T03:29:35;99998.72;;;9.74;86.28
11440;BME280;5776;51.814;4.510;2022-09-29T03:32:01;99999.50;;;9.74;86.92
11440;BME280;5776;51.814;4.510;2022-09-29T03:34:27;99986.22;;;9.73;86.68
11440;BME280;5776;51.814;4.510;2022-09-29T03:36:53;99991.97;;;9.71;86.30
11440;BME280;5776;51.814;4.510;2022-09-29T03:39:19;100001.72;;;9.72;87.17
11440;BME280;5776;51.814;4.510;2022-09-29T03:41:46;100006.16;;;9.68;87.14
11440;BME280;5776;51.814;4.510;2022-09-29T03:44:12;99996.91;;;9.69;87.45
11440;BME280;5776;51.814;4.510;2022-09-29T03:46:38;99999.41;;;9.66;87.43
11440;BME280;5776;51.814;4.510;2022-09-29T03:49:03;100003.72;;;9.67;86.72
11440;BME280;5776;51.814;4.510;2022-09-29T03:51:29;99999.72;;;9.64;86.61
11440;BME280;5776;51.814;4.510;2022-09-29T03:53:55;100006.25;;;9.63;86.08
11440;BME280;5776;51.814;4.510;2022-09-29T03:56:21;100011.69;;;9.63;85.98
11440;BME280;5776;51.814;4.510;2022-09-29T03:58:47;100018.00;;;9.59;86.00
11440;BME280;5776;51.814;4.510;2022-09-29T04:01:13;100021.50;;;9.59;86.07
11440;BME280;5776;51.814;4.510;2022-09-29T04:03:39;100018.78;;;9.59;85.90
11440;BME280;5776;51.814;4.510;2022-09-29T04:06:05;100026.41;;;9.57;86.35
11440;BME280;5776;51.814;4.510;2022-09-29T04:08:31;100024.50;;;9.58;86.85
11440;BME280;5776;51.814;4.510;2022-09-29T04:10:57;100021.00;;;9.57;86.09
11440;BME280;5776;51.814;4.510;2022-09-29T04:13:23;100024.03;;;9.56;85.41
11440;BME280;5776;51.814;4.510;2022-09-29T04:15:49;100019.19;;;9.52;86.13
11440;BME280;5776;51.814;4.510;2022-09-29T04:18:15;100032.44;;;9.54;86.31
11440;BME280;5776;51.814;4.510;2022-09-29T04:20:42;100031.13;;;9.51;86.13
11440;BME280;5776;51.814;4.510;2022-09-29T04:23:08;100030.34;;;9.51;86.48
11440;BME280;5776;51.814;4.510;2022-09-29T04:25:33;100038.47;;;9.51;85.62
11440;BME280;5776;51.814;4.510;2022-09-29T04:28:00;100031.25;;;9.46;85.68
11440;BME280;5776;51.814;4.510;2022-09-29T04:30:26;100030.63;;;9.49;85.97
11440;BME280;5776;51.814;4.510;2022-09-29T04:32:52;100033.06;;;9.51;86.59
11440;BME280;5776;51.814;4.510;2022-09-29T04:35:17;100025.22;;;9.49;86.28
11440;BME280;5776;51.814;4.510;2022-09-29T04:37:43;100030.13;;;9.47;86.13
11440;BME280;5776;51.814;4.510;2022-09-29T04:40:09;100030.44;;;9.46;86.78
11440;BME280;5776;51.814;4.510;2022-09-29T04:42:36;100040.69;;;9.49;86.69
11440;BME280;5776;51.814;4.510;2022-09-29T04:45:02;100035.25;;;9.49;86.84
11440;BME280;5776;51.814;4.510;2022-09-29T04:47:28;100042.88;;;9.47;86.37
11440;BME280;5776;51.814;4.510;2022-09-29T04:49:54;100050.72;;;9.48;86.73
11440;BME280;5776;51.814;4.510;2022-09-29T04:52:20;100047.50;;;9.46;86.09
11440;BME280;5776;51.814;4.510;2022-09-29T04:54:46;100043.47;;;9.44;86.26
11440;BME280;5776;51.814;4.510;2022-09-29T04:57:12;100046.69;;;9.46;87.35
11440;BME280;5776;51.814;4.510;2022-09-29T04:59:38;100051.63;;;9.44;86.96
11440;BME280;5776;51.814;4.510;2022-09-29T05:02:04;100050.81;;;9.43;87.32
11440;BME280;5776;51.814;4.510;2022-09-29T05:04:29;100058.94;;;9.43;86.94
11440;BME280;5776;51.814;4.510;2022-09-29T05:06:55;100058.13;;;9.43;86.74
11440;BME280;5776;51.814;4.510;2022-09-29T05:09:21;100063.53;;;9.43;86.54
11440;BME280;5776;51.814;4.510;2022-09-29T05:11:47;100066.56;;;9.41;87.17
11440;BME280;5776;51.814;4.510;2022-09-29T05:14:13;100070.06;;;9.42;85.97
11440;BME280;5776;51.814;4.510;2022-09-29T05:16:39;100067.97;;;9.39;86.18
11440;BME280;5776;51.814;4.510;2022-09-29T05:19:05;100078.00;;;9.38;85.90
11440;BME280;5776;51.814;4.510;2022-09-29T05:21:31;100076.38;;;9.37;86.77
11440;BME280;5776;51.814;4.510;2022-09-29T05:23:57;100075.59;;;9.37;86.50
11440;BME280;5776;51.814;4.510;2022-09-29T05:26:23;100078.59;;;9.35;86.45
11440;BME280;5776;51.814;4.510;2022-09-29T05:28:49;100073.47;;;9.34;86.17
11440;BME280;5776;51.814;4.510;2022-09-29T05:31:15;100068.66;;;9.30;86.00
11440;BME280;5776;51.814;4.510;2022-09-29T05:33:42;100077.88;;;9.29;86.77
11440;BME280;5776;51.814;4.510;2022-09-29T05:36:10;100079.97;;;9.33;86.61
11440;BME280;5776;51.814;4.510;2022-09-29T05:38:37;100081.25;;;9.54;86.93
11440;BME280;5776;51.814;4.510;2022-09-29T05:41:08;100082.34;;;9.67;86.13
11440;BME280;5776;51.814;4.510;2022-09-29T05:43:35;100082.75;;;9.74;85.99
11440;BME280;5776;51.814;4.510;2022-09-29T05:46:03;100091.91;;;9.78;86.67
11440;BME280;5776;51.814;4.510;2022-09-29T05:48:29;100083.19;;;9.81;86.02
11440;BME280;5776;51.814;4.510;2022-09-29T05:50:59;100087.47;;;9.82;86.27
11440;BME280;5776;51.814;4.510;2022-09-29T05:53:31;100089.91;;;9.84;85.67
11440;BME280;5776;51.814;4.510;2022-09-29T05:55:57;100089.09;;;9.83;86.39
11440;BME280;5776;51.814;4.510;2022-09-29T05:58:22;100100.44;;;9.85;86.06
11440;BME280;5776;51.814;4.510;2022-09-29T06:00:48;100096.63;;;9.86;86.48
11440;BME280;5776;51.814;4.510;2022-09-29T06:03:14;100095.53;;;9.87;85.83
11440;BME280;5776;51.814;4.510;2022-09-29T06:05:40;100090.09;;;9.87;85.74
11440;BME280;5776;51.814;4.510;2022-09-29T06:08:06;100095.75;;;9.91;86.42
11440;BME280;5776;51.814;4.510;2022-09-29T06:10:33;100096.81;;;9.90;86.74
11440;BME280;5776;51.814;4.510;2022-09-29T06:13:00;100096.81;;;9.90;86.32
11440;BME280;5776;51.814;4.510;2022-09-29T06:15:28;100101.44;;;9.89;86.43
11440;BME280;5776;51.814;4.510;2022-09-29T06:17:57;100103.38;;;9.89;86.46
11440;BME280;5776;51.814;4.510;2022-09-29T06:20:24;100106.09;;;9.89;85.86
11440;BME280;5776;51.814;4.510;2022-09-29T06:22:54;100106.88;;;9.89;86.77
11440;BME280;5776;51.814;4.510;2022-09-29T06:25:20;100103.38;;;9.89;86.75
11440;BME280;5776;51.814;4.510;2022-09-29T06:27:45;100108.78;;;9.89;86.25
11440;BME280;5776;51.814;4.510;2022-09-29T06:30:13;100114.22;;;9.89;86.71
11440;BME280;5776;51.814;4.510;2022-09-29T06:32:39;100115.81;;;9.90;86.50
11440;BME280;5776;51.814;4.510;2022-09-29T06:35:05;100115.00;;;9.89;86.25
11440;BME280;5776;51.814;4.510;2022-09-29T06:37:52;100118.84;;;9.88;86.08
11440;BME280;5776;51.814;4.510;2022-09-29T06:40:20;100123.94;;;9.90;86.08
11440;BME280;5776;51.814;4.510;2022-09-29T06:42:46;100122.03;;;9.90;86.80
11440;BME280;5776;51.814;4.510;2022-09-29T06:45:12;100122.88;;;9.91;86.04
11440;BME280;5776;51.814;4.510;2022-09-29T06:47:38;100125.06;;;9.89;86.25
11440;BME280;5776;51.814;4.510;2022-09-29T06:50:04;100130.06;;;9.95;87.37
11440;BME280;5776;51.814;4.510;2022-09-29T06:52:31;100133.28;;;9.98;87.16
11440;BME280;5776;51.814;4.510;2022-09-29T06:54:57;100132.50;;;9.97;87.05
11440;BME280;5776;51.814;4.510;2022-09-29T06:57:23;100133.09;;;9.94;86.95
11440;BME280;5776;51.814;4.510;2022-09-29T06:59:49;100132.78;;;9.95;87.00
11440;BME280;5776;51.814;4.510;2022-09-29T07:02:15;100138.53;;;9.94;87.23
11440;BME280;5776;51.814;4.510;2022-09-29T07:04:41;100146.34;;;9.95;86.72
11440;BME280;5776;51.814;4.510;2022-09-29T07:07:07;100137.41;;;9.95;87.58
11440;BME280;5776;51.814;4.510;2022-09-29T07:09:33;100148.25;;;9.95;86.66
11440;BME280;5776;51.814;4.510;2022-09-29T07:11:59;100145.56;;;9.95;87.14
11440;BME280;5776;51.814;4.510;2022-09-29T07:14:25;100147.19;;;9.96;87.33
11440;BME280;5776;51.814;4.510;2022-09-29T07:16:52;100160.13;;;9.99;87.57
11440;BME280;5776;51.814;4.510;2022-09-29T07:19:18;100159.53;;;10.02;87.24
11440;BME280;5776;51.814;4.510;2022-09-29T07:21:45;100160.66;;;10.01;87.57
11440;BME280;5776;51.814;4.510;2022-09-29T07:24:12;100162.75;;;10.04;87.82
11440;BME280;5776;51.814;4.510;2022-09-29T07:26:38;100164.66;;;10.04;87.38
11440;BME280;5776;51.814;4.510;2022-09-29T07:29:04;100154.50;;;10.09;87.58
11440;BME280;5776;51.814;4.510;2022-09-29T07:31:30;100167.06;;;10.05;88.18
11440;BME280;5776;51.814;4.510;2022-09-29T07:33:56;100178.50;;;10.02;87.78
11440;BME280;5776;51.814;4.510;2022-09-29T07:36:22;100176.91;;;10.01;88.05
11440;BME280;5776;51.814;4.510;2022-09-29T07:38:49;100176.91;;;10.01;88.41
11440;BME280;5776;51.814;4.510;2022-09-29T07:41:18;100177.72;;;10.02;88.79
11440;BME280;5776;51.814;4.510;2022-09-29T07:43:44;100172.28;;;10.02;88.31
11440;BME280;5776;51.814;4.510;2022-09-29T07:46:10;100186.66;;;10.02;88.99
11440;BME280;5776;51.814;4.510;2022-09-29T07:48:37;100180.94;;;10.04;88.39
11440;BME280;5776;51.814;4.510;2022-09-29T07:51:06;100186.06;;;10.05;89.20
11440;BME280;5776;51.814;4.510;2022-09-29T07:53:33;100181.13;;;10.07;88.81
11440;BME280;5776;51.814;4.510;2022-09-29T07:56:02;100180.03;;;10.08;89.38
11440;BME280;5776;51.814;4.510;2022-09-29T07:58:30;100188.97;;;10.09;88.73
11440;BME280;5776;51.814;4.510;2022-09-29T08:00:57;100192.22;;;10.11;89.13
11440;BME280;5776;51.814;4.510;2022-09-29T08:03:23;100194.91;;;10.11;89.13
11440;BME280;5776;51.814;4.510;2022-09-29T08:05:53;100196.22;;;10.13;89.28
11440;BME280;5776;51.814;4.510;2022-09-29T08:08:19;100202.13;;;10.15;89.47
11440;BME280;5776;51.814;4.510;2022-09-29T08:10:45;100194.50;;;10.17;89.74
11440;BME280;5776;51.814;4.510;2022-09-29T08:13:11;100199.63;;;10.19;89.96
11440;BME280;5776;51.814;4.510;2022-09-29T08:15:37;100208.59;;;10.20;89.76
11440;BME280;5776;51.814;4.510;2022-09-29T08:18:03;100207.47;;;10.21;89.93
11440;BME280;5776;51.814;4.510;2022-09-29T08:20:29;100210.69;;;10.23;89.98
11440;BME280;5776;51.814;4.510;2022-09-29T08:22:57;100219.63;;;10.23;89.97
11440;BME280;5776;51.814;4.510;2022-09-29T08:25:23;100210.91;;;10.26;90.66
11440;BME280;5776;51.814;4.510;2022-09-29T08:27:52;100230.44;;;10.28;90.74
11440;BME280;5776;51.814;4.510;2022-09-29T08:30:19;100224.69;;;10.30;90.77
11440;BME280;5776;51.814;4.510;2022-09-29T08:32:52;100229.03;;;10.31;90.81
11440;BME280;5776;51.814;4.510;2022-09-29T08:35:18;100236.88;;;10.32;92.12
11440;BME280;5776;51.814;4.510;2022-09-29T08:37:45;100231.44;;;10.32;92.08
11440;BME280;5776;51.814;4.510;2022-09-29T08:40:12;100243.91;;;10.33;91.86
11440;BME280;5776;51.814;4.510;2022-09-29T08:45:16;100249.53;;;10.37;93.08
11440;BME280;5776;51.814;4.510;2022-09-29T08:47:46;100251.66;;;10.40;93.33
11440;BME280;5776;51.814;4.510;2022-09-29T08:52:53;100255.88;;;10.46;93.96
11440;BME280;5776;51.814;4.510;2022-09-29T08:55:33;100261.81;;;10.48;93.46
11440;BME280;5776;51.814;4.510;2022-09-29T08:58:00;100259.41;;;10.47;94.54
11440;BME280;5776;51.814;4.510;2022-09-29T09:00:41;100260.19;;;10.47;94.67
11440;BME280;5776;51.814;4.510;2022-09-29T09:06:08;100266.31;;;10.53;94.46
11440;BME280;5776;51.814;4.510;2022-09-29T09:16:47;100282.75;;;10.62;95.48
11440;BME280;5776;51.814;4.510;2022-09-29T09:25:00;100282.31;;;10.68;95.93
11440;BME280;5776;51.814;4.510;2022-09-29T09:27:39;100280.91;;;10.71;95.81
11440;BME280;5776;51.814;4.510;2022-09-29T09:30:15;100290.69;;;10.72;95.86
11440;BME280;5776;51.814;4.510;2022-09-29T09:32:55;100283.34;;;10.72;95.16
11440;BME280;5776;51.814;4.510;2022-09-29T09:36:27;100279.53;;;10.73;95.25
11440;BME280;5776;51.814;4.510;2022-09-29T09:38:23;100278.13;;;10.76;95.46
11440;BME280;5776;51.814;4.510;2022-09-29T09:40:53;100284.75;;;10.84;96.05
11440;BME280;5776;51.814;4.510;2022-09-29T09:43:41;100280.63;;;10.86;95.96
11440;BME280;5776;51.814;4.510;2022-09-29T09:46:20;100290.56;;;10.91;95.51
11440;BME280;5776;51.814;4.510;2022-09-29T09:54:38;100287.72;;;10.96;95.26
11440;BME280;5776;51.814;4.510;2022-09-29T10:00:07;100297.13;;;11.03;95.20
11440;BME280;5776;51.814;4.510;2022-09-29T10:02:44;100298.09;;;11.08;94.58
11440;BME280;5776;51.814;4.510;2022-09-29T10:05:13;100304.53;;;11.12;95.74
11440;BME280;5776;51.814;4.510;2022-09-29T10:07:39;100293.56;;;11.17;96.18
11440;BME280;5776;51.814;4.510;2022-09-29T10:10:18;100297.75;;;11.23;96.52
11440;BME280;5776;51.814;4.510;2022-09-29T10:12:45;100298.78;;;11.27;96.35
11440;BME280;5776;51.814;4.510;2022-09-29T10:17:58;100303.47;;;11.35;95.79
11440;BME280;5776;51.814;4.510;2022-09-29T10:20:36;100298.72;;;11.41;95.75
11440;BME280;5776;51.814;4.510;2022-09-29T10:26:15;100295.09;;;11.45;95.62
11440;BME280;5776;51.814;4.510;2022-09-29T10:34:31;100299.06;;;11.62;95.13
11440;BME280;5776;51.814;4.510;2022-09-29T10:37:17;100302.59;;;11.62;95.28
11440;BME280;5776;51.814;4.510;2022-09-29T10:39:46;100306.91;;;11.63;94.79
11440;BME280;5776;51.814;4.510;2022-09-29T10:42:23;100307.13;;;11.67;95.24
11440;BME280;5776;51.814;4.510;2022-09-29T10:44:53;100304.28;;;11.72;95.75
11440;BME280;5776;51.814;4.510;2022-09-29T10:47:21;100306.38;;;11.75;95.87
11440;BME280;5776;51.814;4.510;2022-09-29T10:49:47;100307.06;;;11.81;96.04
11440;BME280;5776;51.814;4.510;2022-09-29T10:52:31;100315.09;;;11.86;95.25
11440;BME280;5776;51.814;4.510;2022-09-29T10:54:59;100314.53;;;11.89;94.96
11440;BME280;5776;51.814;4.510;2022-09-29T10:57:31;100317.59;;;11.96;95.08
11440;BME280;5776;51.814;4.510;2022-09-29T10:59:59;100319.22;;;11.97;94.72
11440;BME280;5776;51.814;4.510;2022-09-29T11:02:36;100321.00;;;12.02;94.80
11440;BME280;5776;51.814;4.510;2022-09-29T11:05:04;100326.94;;;12.04;94.95
11440;BME280;5776;51.814;4.510;2022-09-29T11:07:46;100320.56;;;12.08;94.68
11440;BME280;5776;51.814;4.510;2022-09-29T11:10:31;100320.25;;;12.10;94.87
11440;BME280;5776;51.814;4.510;2022-09-29T11:12:58;100329.56;;;12.09;94.41
11440;BME280;5776;51.814;4.510;2022-09-29T11:15:37;100326.31;;;12.07;94.78
11440;BME280;5776;51.814;4.510;2022-09-29T11:18:17;100328.25;;;12.06;94.33
11440;BME280;5776;51.814;4.510;2022-09-29T11:20:48;100322.97;;;12.10;93.82
11440;BME280;5776;51.814;4.510;2022-09-29T11:23:31;100337.25;;;12.16;93.93
11440;BME280;5776;51.814;4.510;2022-09-29T11:31:31;100332.38;;;12.26;93.71
11440;BME280;5776;51.814;4.510;2022-09-29T11:40:01;100332.84;;;12.28;93.47
11440;BME280;5776;51.814;4.510;2022-09-29T11:42:47;100346.47;;;12.28;92.96
11440;BME280;5776;51.814;4.510;2022-09-29T11:48:18;100347.03;;;12.39;92.62
11440;BME280;5776;51.814;4.510;2022-09-29T11:56:39;100353.50;;;12.52;92.88
11440;BME280;5776;51.814;4.510;2022-09-29T12:04:54;100349.06;;;12.65;92.72
11440;BME280;5776;51.814;4.510;2022-09-29T12:07:53;100362.06;;;12.68;92.38
11440;BME280;5776;51.814;4.510;2022-09-29T12:13:26;100352.97;;;12.72;91.05
11440;BME280;5776;51.814;4.510;2022-09-29T12:15:58;100354.75;;;12.77;91.62
11440;BME280;5776;51.814;4.510;2022-09-29T12:18:50;100354.91;;;12.81;92.17
11440;BME280;5776;51.814;4.510;2022-09-29T12:21:32;100352.69;;;12.83;90.42
11440;BME280;5776;51.814;4.510;2022-09-29T12:24:02;100355.91;;;12.93;90.51
11440;BME280;5776;51.814;4.510;2022-09-29T12:26:30;100353.69;;;12.95;90.51
11440;BME280;5776;51.814;4.510;2022-09-29T12:29:06;100357.38;;;13.00;90.62
11440;BME280;5776;51.814;4.510;2022-09-29T12:31:46;100350.66;;;12.97;90.38
11440;BME280;5776;51.814;4.510;2022-09-29T12:34:19;100360.63;;;13.02;90.70
11440;BME280;5776;51.814;4.510;2022-09-29T12:37:00;100361.91;;;13.04;90.33
11440;BME280;5776;51.814;4.510;2022-09-29T12:51:04;100361.75;;;13.09;89.04
11440;BME280;5776;51.814;4.510;2022-09-29T12:53:51;100351.84;;;13.22;87.99
11440;BME280;5776;51.814;4.510;2022-09-29T12:56:42;100361.91;;;13.22;87.66
11440;BME280;5776;51.814;4.510;2022-09-29T12:59:26;100356.00;;;13.19;87.67
11440;BME280;5776;51.814;4.510;2022-09-29T13:01:55;100360.34;;;13.21;87.26
11440;BME280;5776;51.814;4.510;2022-09-29T13:10:03;100363.84;;;13.21;89.25
11440;BME280;5776;51.814;4.510;2022-09-29T13:21:07;100368.03;;;13.18;88.99
11440;BME280;5776;51.814;4.510;2022-09-29T13:24:05;100369.94;;;13.18;88.74
11440;BME280;5776;51.814;4.510;2022-09-29T13:26:39;100375.25;;;13.14;89.37
11440;BME280;5776;51.814;4.510;2022-09-29T13:29:23;100376.69;;;13.12;89.13
11440;BME280;5776;51.814;4.510;2022-09-29T13:31:52;100381.16;;;13.08;89.95
11440;BME280;5776;51.814;4.510;2022-09-29T13:34:29;100384.19;;;13.06;90.10
11440;BME280;5776;51.814;4.510;2022-09-29T13:37:12;100386.75;;;13.03;90.88
11440;BME280;5776;51.814;4.510;2022-09-29T13:39:42;100386.25;;;13.01;91.18
11440;BME280;5776;51.814;4.510;2022-09-29T13:55:53;100396.78;;;12.93;91.73
11440;BME280;5776;51.814;4.510;2022-09-29T13:58:29;100395.69;;;12.94;91.46
11440;BME280;5776;51.814;4.510;2022-09-29T14:01:04;100408.69;;;12.97;91.49
11440;BME280;5776;51.814;4.510;2022-09-29T14:03:36;100400.69;;;13.01;90.80
11440;BME280;5776;51.814;4.510;2022-09-29T14:08:45;100410.53;;;13.19;89.84
11440;BME280;5776;51.814;4.510;2022-09-29T14:11:42;100403.47;;;13.18;90.08
11440;BME280;5776;51.814;4.510;2022-09-29T14:14:15;100410.53;;;13.19;90.02
11440;BME280;5776;51.814;4.510;2022-09-29T14:21:53;100408.63;;;13.20;89.90
11440;BME280;5776;51.814;4.510;2022-09-29T14:29:49;100416.00;;;13.19;90.33
11440;BME280;5776;51.814;4.510;2022-09-29T14:32:19;100415.66;;;13.21;90.81
11440;BME280;5776;51.814;4.510;2022-09-29T14:34:47;100421.91;;;13.22;90.28
11440;BME280;5776;51.814;4.510;2022-09-29T14:37:18;100420.63;;;13.19;90.25
11440;BME280;5776;51.814;4.510;2022-09-29T14:39:46;100422.56;;;13.18;89.74
11440;BME280;5776;51.814;4.510;2022-09-29T14:42:33;100424.78;;;13.16;90.61
11440;BME280;5776;51.814;4.510;2022-09-29T14:45:00;100427.50;;;13.16;90.90
11440;BME280;5776;51.814;4.510;2022-09-29T14:48:10;100435.22;;;13.14;90.87
11440;BME280;5776;51.814;4.510;2022-09-29T14:51:18;100439.25;;;13.17;90.51
11440;BME280;5776;51.814;4.510;2022-09-29T15:02:21;100441.00;;;13.22;89.91
11440;BME280;5776;51.814;4.510;2022-09-29T15:04:49;100448.88;;;13.23;89.00
11440;BME280;5776;51.814;4.510;2022-09-29T15:07:18;100452.91;;;13.26;88.99
11440;BME280;5776;51.814;4.510;2022-09-29T15:09:51;100449.09;;;13.27;88.27
11440;BME280;5776;51.814;4.510;2022-09-29T15:12:23;100458.88;;;13.28;89.29
11440;BME280;5776;51.814;4.510;2022-09-29T15:14:54;100457.56;;;13.25;89.43
11440;BME280;5776;51.814;4.510;2022-09-29T15:17:43;100459.78;;;13.23;90.25
11440;BME280;5776;51.814;4.510;2022-09-29T15:20:38;100466.38;;;13.22;90.05
11440;BME280;5776;51.814;4.510;2022-09-29T15:24:04;100470.03;;;13.17;90.61
11440;BME280;5776;51.814;4.510;2022-09-29T15:26:12;100469.53;;;13.15;92.13
11440;BME280;5776;51.814;4.510;2022-09-29T15:28:41;100471.28;;;13.11;92.33
11440;BME280;5776;51.814;4.510;2022-09-29T15:31:11;100473.69;;;13.13;92.33
11440;BME280;5776;51.814;4.510;2022-09-29T15:33:39;100469.97;;;13.09;92.44
11440;BME280;5776;51.814;4.510;2022-09-29T15:36:18;100472.03;;;13.03;92.97
11440;BME280;5776;51.814;4.510;2022-09-29T15:38:47;100475.84;;;12.93;93.87
11440;BME280;5776;51.814;4.510;2022-09-29T15:41:17;100475.66;;;12.90;94.19
11440;BME280;5776;51.814;4.510;2022-09-29T15:46:22;100480.63;;;12.88;93.93
11440;BME280;5776;51.814;4.510;2022-09-29T15:49:11;100476.47;;;12.90;94.24
11440;BME280;5776;51.814;4.510;2022-09-29T15:51:39;100478.63;;;13.02;93.84
11440;BME280;5776;51.814;4.510;2022-09-29T15:54:06;100487.78;;;13.06;93.97
11440;BME280;5776;51.814;4.510;2022-09-29T15:56:36;100486.66;;;13.07;93.41
11440;BME280;5776;51.814;4.510;2022-09-29T15:59:42;100482.50;;;13.10;93.56
11440;BME280;5776;51.814;4.510;2022-09-29T16:02:30;100490.03;;;13.04;94.05
11440;BME280;5776;51.814;4.510;2022-09-29T16:05:04;100495.47;;;13.04;93.35
11440;BME280;5776;51.814;4.510;2022-09-29T16:07:34;100501.91;;;13.08;93.37
11440;BME280;5776;51.814;4.510;2022-09-29T16:10:13;100508.22;;;13.17;93.03
11440;BME280;5776;51.814;4.510;2022-09-29T16:12:53;100505.16;;;13.19;92.69
11440;BME280;5776;51.814;4.510;2022-09-29T16:15:42;100509.78;;;13.10;92.99
11440;BME280;5776;51.814;4.510;2022-09-29T16:18:21;100512.81;;;13.08;93.04
11440;BME280;5776;51.814;4.510;2022-09-29T16:20:48;100520.97;;;13.08;92.59
11440;BME280;5776;51.814;4.510;2022-09-29T16:23:23;100523.03;;;13.03;93.19